sensor_id;sensor_type;location;lat;lon;timestamp;pressure;altitude;pressure_sealevel;temperature;humidity
60852;BME280;48553;50.766;2.900;2023-11-22T00:01:10;102040.78;;;8.49;100.00
60852;BME280;48553;50.766;2.900;2023-11-22T00:04:11;102049.78;;;8.50;100.00
60852;BME280;48553;50.766;2.900;2023-11-22T00:07:11;102054.19;;;8.46;100.00
60852;BME280;48553;50.766;2.900;2023-11-22T00:10:12;102041.63;;;8.45;100.00
60852;BME280;48553;50.766;2.900;2023-11-22T00:13:12;102051.22;;;8.42;100.00
60852;BME280;48553;50.766;2.900;2023-11-22T00:16:13;102032.41;;;8.41;100.00
60852;BME280;48553;50.766;2.900;2023-11-22T00:19:13;102035.38;;;8.39;100.00
60852;BME280;48553;50.766;2.900;2023-11-22T00:22:15;102027.78;;;8.36;100.00
60852;BME280;48553;50.766;2.900;2023-11-22T00:25:16;102028.66;;;8.31;100.00
60852;BME280;48553;50.766;2.900;2023-11-22T00:28:16;102043.09;;;8.32;100.00
60852;BME280;48553;50.766;2.900;2023-11-22T00:31:17;102040.66;;;8.30;100.00
60852;BME280;48553;50.766;2.900;2023-11-22T00:34:18;102040.94;;;8.29;100.00
60852;BME280;48553;50.766;2.900;2023-11-22T00:37:18;102061.44;;;8.26;100.00
60852;BME280;48553;50.766;2.900;2023-11-22T00:40:19;102061.22;;;8.23;100.00
60852;BME280;48553;50.766;2.900;2023-11-22T00:43:20;102071.34;;;8.22;100.00
60852;BME280;48553;50.766;2.900;2023-11-22T00:46:21;102077.34;;;8.19;100.00
60852;BME280;48553;50.766;2.900;2023-11-22T00:49:21;102072.19;;;8.18;100.00
60852;BME280;48553;50.766;2.900;2023-11-22T00:52:22;102068.34;;;8.19;100.00
60852;BME280;48553;50.766;2.900;2023-11-22T00:55:23;102079.03;;;8.15;100.00
60852;BME280;48553;50.766;2.900;2023-11-22T00:58:23;102074.94;;;8.12;100.00
60852;BME280;48553;50.766;2.900;2023-11-22T01:01:24;102078.28;;;8.09;100.00
60852;BME280;48553;50.766;2.900;2023-11-22T01:04:24;102084.00;;;8.08;100.00
60852;BME280;48553;50.766;2.900;2023-11-22T01:07:25;102074.75;;;8.04;100.00
60852;BME280;48553;50.766;2.900;2023-11-22T01:10:25;102078.31;;;8.04;100.00
60852;BME280;48553;50.766;2.900;2023-11-22T01:13:25;102081.31;;;8.03;100.00
60852;BME280;48553;50.766;2.900;2023-11-22T01:16:26;102081.91;;;8.00;100.00
60852;BME280;48553;50.766;2.900;2023-11-22T01:19:27;102082.72;;;8.00;100.00
60852;BME280;48553;50.766;2.900;2023-11-22T01:22:28;102083.78;;;7.99;100.00
60852;BME280;48553;50.766;2.900;2023-11-22T01:25:28;102079.72;;;7.97;100.00
60852;BME280;48553;50.766;2.900;2023-11-22T01:28:29;102088.50;;;7.93;100.00
60852;BME280;48553;50.766;2.900;2023-11-22T01:31:35;102098.88;;;7.91;100.00
60852;BME280;48553;50.766;2.900;2023-11-22T01:34:35;102103.81;;;7.89;100.00
60852;BME280;48553;50.766;2.900;2023-11-22T01:37:36;102109.84;;;7.86;100.00
60852;BME280;48553;50.766;2.900;2023-11-22T01:40:46;102118.03;;;7.86;100.00
60852;BME280;48553;50.766;2.900;2023-11-22T01:43:47;102109.31;;;7.84;100.00
60852;BME280;48553;50.766;2.900;2023-11-22T01:46:48;102110.38;;;7.83;100.00
60852;BME280;48553;50.766;2.900;2023-11-22T01:49:48;102111.25;;;7.79;100.00
60852;BME280;48553;50.766;2.900;2023-11-22T01:52:49;102104.44;;;7.76;100.00
60852;BME280;48553;50.766;2.900;2023-11-22T01:55:49;102106.91;;;7.78;100.00
60852;BME280;48553;50.766;2.900;2023-11-22T01:58:50;102100.09;;;7.75;99.95
60852;BME280;48553;50.766;2.900;2023-11-22T02:01:53;102103.91;;;7.74;99.97
60852;BME280;48553;50.766;2.900;2023-11-22T02:04:54;102104.75;;;7.74;100.00
60852;BME280;48553;50.766;2.900;2023-11-22T02:07:55;102102.28;;;7.73;99.65
60852;BME280;48553;50.766;2.900;2023-11-22T02:11:00;102109.94;;;7.71;100.00
60852;BME280;48553;50.766;2.900;2023-11-22T02:14:00;102118.41;;;7.69;99.94
60852;BME280;48553;50.766;2.900;2023-11-22T02:17:01;102111.06;;;7.65;99.80
60852;BME280;48553;50.766;2.900;2023-11-22T02:20:01;102114.91;;;7.64;99.44
60852;BME280;48553;50.766;2.900;2023-11-22T02:23:10;102117.09;;;7.62;99.52
60852;BME280;48553;50.766;2.900;2023-11-22T02:26:11;102120.63;;;7.62;99.93
60852;BME280;48553;50.766;2.900;2023-11-22T02:29:12;102130.19;;;7.60;100.00
60852;BME280;48553;50.766;2.900;2023-11-22T02:32:12;102125.00;;;7.58;99.88
60852;BME280;48553;50.766;2.900;2023-11-22T02:35:13;102127.75;;;7.58;99.73
60852;BME280;48553;50.766;2.900;2023-11-22T02:38:16;102126.38;;;7.56;99.99
60852;BME280;48553;50.766;2.900;2023-11-22T02:41:18;102137.31;;;7.56;100.00
60852;BME280;48553;50.766;2.900;2023-11-22T02:44:18;102138.94;;;7.51;99.92
60852;BME280;48553;50.766;2.900;2023-11-22T02:47:19;102139.22;;;7.55;100.00
60852;BME280;48553;50.766;2.900;2023-11-22T02:50:19;102134.34;;;7.52;100.00
60852;BME280;48553;50.766;2.900;2023-11-22T02:53:20;102146.06;;;7.52;100.00
60852;BME280;48553;50.766;2.900;2023-11-22T02:56:21;102155.63;;;7.50;100.00
60852;BME280;48553;50.766;2.900;2023-11-22T02:59:21;102166.22;;;7.51;100.00
60852;BME280;48553;50.766;2.900;2023-11-22T03:02:22;102174.72;;;7.50;100.00
60852;BME280;48553;50.766;2.900;2023-11-22T03:05:23;102176.63;;;7.49;100.00
60852;BME280;48553;50.766;2.900;2023-11-22T03:08:24;102159.97;;;7.51;100.00
60852;BME280;48553;50.766;2.900;2023-11-22T03:11:24;102145.25;;;7.52;100.00
60852;BME280;48553;50.766;2.900;2023-11-22T03:14:25;102148.25;;;7.50;100.00
60852;BME280;48553;50.766;2.900;2023-11-22T03:17:26;102149.34;;;7.49;100.00
60852;BME280;48553;50.766;2.900;2023-11-22T03:20:28;102142.25;;;7.48;100.00
60852;BME280;48553;50.766;2.900;2023-11-22T03:23:29;102147.44;;;7.50;100.00
60852;BME280;48553;50.766;2.900;2023-11-22T03:26:30;102147.44;;;7.50;100.00
60852;BME280;48553;50.766;2.900;2023-11-22T03:29:30;102151.25;;;7.49;100.00
60852;BME280;48553;50.766;2.900;2023-11-22T03:32:31;102142.78;;;7.50;100.00
60852;BME280;48553;50.766;2.900;2023-11-22T03:35:31;102154.81;;;7.49;100.00
60852;BME280;48553;50.766;2.900;2023-11-22T03:38:31;102160.81;;;7.46;100.00
60852;BME280;48553;50.766;2.900;2023-11-22T03:41:32;102165.19;;;7.47;100.00
60852;BME280;48553;50.766;2.900;2023-11-22T03:44:32;102171.44;;;7.48;100.00
60852;BME280;48553;50.766;2.900;2023-11-22T03:47:33;102166.00;;;7.48;100.00
60852;BME280;48553;50.766;2.900;2023-11-22T03:50:34;102172.00;;;7.50;100.00
60852;BME280;48553;50.766;2.900;2023-11-22T03:53:34;102169.25;;;7.50;100.00
60852;BME280;48553;50.766;2.900;2023-11-22T03:56:34;102174.19;;;7.48;100.00
60852;BME280;48553;50.766;2.900;2023-11-22T03:59:35;102175.78;;;7.49;100.00
60852;BME280;48553;50.766;2.900;2023-11-22T04:02:35;102178.28;;;7.45;100.00
60852;BME280;48553;50.766;2.900;2023-11-22T04:05:37;102186.16;;;7.47;100.00
60852;BME280;48553;50.766;2.900;2023-11-22T04:08:38;102193.53;;;7.46;100.00
60852;BME280;48553;50.766;2.900;2023-11-22T04:11:39;102207.75;;;7.43;100.00
60852;BME280;48553;50.766;2.900;2023-11-22T04:14:39;102215.94;;;7.43;100.00
60852;BME280;48553;50.766;2.900;2023-11-22T04:17:40;102209.94;;;7.41;100.00
60852;BME280;48553;50.766;2.900;2023-11-22T04:20:41;102212.66;;;7.41;100.00
60852;BME280;48553;50.766;2.900;2023-11-22T04:23:41;102218.94;;;7.42;100.00
60852;BME280;48553;50.766;2.900;2023-11-22T04:26:42;102215.66;;;7.40;100.00
60852;BME280;48553;50.766;2.900;2023-11-22T04:29:43;102209.66;;;7.38;100.00
60852;BME280;48553;50.766;2.900;2023-11-22T04:32:43;102214.59;;;7.41;100.00
60852;BME280;48553;50.766;2.900;2023-11-22T04:35:44;102222.22;;;7.39;100.00
60852;BME280;48553;50.766;2.900;2023-11-22T04:38:45;102222.50;;;7.37;100.00
60852;BME280;48553;50.766;2.900;2023-11-22T04:41:45;102237.78;;;7.38;100.00
60852;BME280;48553;50.766;2.900;2023-11-22T04:44:46;102236.69;;;7.34;100.00
60852;BME280;48553;50.766;2.900;2023-11-22T04:47:46;102231.50;;;7.32;100.00
60852;BME280;48553;50.766;2.900;2023-11-22T04:50:47;102235.59;;;7.30;100.00
60852;BME280;48553;50.766;2.900;2023-11-22T04:53:47;102223.88;;;7.29;100.00
60852;BME280;48553;50.766;2.900;2023-11-22T04:56:48;102232.59;;;7.31;100.00
60852;BME280;48553;50.766;2.900;2023-11-22T04:59:48;102230.97;;;7.30;100.00
60852;BME280;48553;50.766;2.900;2023-11-22T05:02:49;102220.63;;;7.27;100.00
60852;BME280;48553;50.766;2.900;2023-11-22T05:05:49;102222.53;;;7.27;100.00
60852;BME280;48553;50.766;2.900;2023-11-22T05:08:50;102222.00;;;7.25;100.00
60852;BME280;48553;50.766;2.900;2023-11-22T05:11:50;102230.69;;;7.22;100.00
60852;BME280;48553;50.766;2.900;2023-11-22T05:14:52;102241.63;;;7.22;100.00
60852;BME280;48553;50.766;2.900;2023-11-22T05:17:53;102231.00;;;7.20;100.00
60852;BME280;48553;50.766;2.900;2023-11-22T05:20:53;102229.66;;;7.18;100.00
60852;BME280;48553;50.766;2.900;2023-11-22T05:23:54;102223.66;;;7.16;100.00
60852;BME280;48553;50.766;2.900;2023-11-22T05:26:54;102228.56;;;7.14;100.00
60852;BME280;48553;50.766;2.900;2023-11-22T05:29:55;102237.53;;;7.14;100.00
60852;BME280;48553;50.766;2.900;2023-11-22T05:32:55;102244.63;;;7.10;100.00
60852;BME280;48553;50.766;2.900;2023-11-22T05:35:56;102240.53;;;7.13;100.00
60852;BME280;48553;50.766;2.900;2023-11-22T05:38:56;102242.72;;;7.10;100.00
60852;BME280;48553;50.766;2.900;2023-11-22T05:41:59;102237.56;;;7.09;100.00
60852;BME280;48553;50.766;2.900;2023-11-22T05:45:01;102245.75;;;7.09;100.00
60852;BME280;48553;50.766;2.900;2023-11-22T05:48:02;102245.19;;;7.07;100.00
60852;BME280;48553;50.766;2.900;2023-11-22T05:51:02;102234.28;;;7.07;100.00
60852;BME280;48553;50.766;2.900;2023-11-22T05:54:03;102235.38;;;7.06;100.00
60852;BME280;48553;50.766;2.900;2023-11-22T05:57:04;102243.84;;;7.04;100.00
60852;BME280;48553;50.766;2.900;2023-11-22T06:00:05;102260.47;;;7.03;100.00
60852;BME280;48553;50.766;2.900;2023-11-22T06:03:05;102262.38;;;7.02;100.00
60852;BME280;48553;50.766;2.900;2023-11-22T06:06:06;102246.84;;;7.03;100.00
60852;BME280;48553;50.766;2.900;2023-11-22T06:09:07;102242.50;;;7.02;100.00
60852;BME280;48553;50.766;2.900;2023-11-22T06:12:07;102241.94;;;7.00;100.00
60852;BME280;48553;50.766;2.900;2023-11-22T06:15:08;102231.59;;;7.02;100.00
60852;BME280;48553;50.766;2.900;2023-11-22T06:18:08;102242.75;;;7.00;100.00
60852;BME280;48553;50.766;2.900;2023-11-22T06:21:10;102246.56;;;6.99;100.00
60852;BME280;48553;50.766;2.900;2023-11-22T06:24:10;102250.38;;;6.98;100.00
60852;BME280;48553;50.766;2.900;2023-11-22T06:27:15;102267.00;;;6.97;100.00
60852;BME280;48553;50.766;2.900;2023-11-22T06:30:16;102294.25;;;6.97;100.00
60852;BME280;48553;50.766;2.900;2023-11-22T06:33:16;102311.16;;;6.94;100.00
60852;BME280;48553;50.766;2.900;2023-11-22T06:36:17;102307.34;;;6.95;100.00
60852;BME280;48553;50.766;2.900;2023-11-22T06:39:18;102305.97;;;6.92;100.00
60852;BME280;48553;50.766;2.900;2023-11-22T06:42:18;102305.72;;;6.94;100.00
60852;BME280;48553;50.766;2.900;2023-11-22T06:45:22;102313.88;;;6.94;100.00
60852;BME280;48553;50.766;2.900;2023-11-22T06:48:23;102302.44;;;6.92;100.00
60852;BME280;48553;50.766;2.900;2023-11-22T06:51:23;102300.28;;;6.88;100.00
60852;BME280;48553;50.766;2.900;2023-11-22T06:54:24;102301.91;;;6.89;100.00
60852;BME280;48553;50.766;2.900;2023-11-22T06:57:24;102291.81;;;6.90;100.00
60852;BME280;48553;50.766;2.900;2023-11-22T07:00:29;102291.81;;;6.90;100.00
60852;BME280;48553;50.766;2.900;2023-11-22T07:03:29;102291.81;;;6.85;100.00
60852;BME280;48553;50.766;2.900;2023-11-22T07:06:29;102279.00;;;6.85;100.00
60852;BME280;48553;50.766;2.900;2023-11-22T07:09:30;102280.66;;;6.86;100.00
60852;BME280;48553;50.766;2.900;2023-11-22T07:12:32;102285.56;;;6.84;100.00
60852;BME280;48553;50.766;2.900;2023-11-22T07:15:34;102289.91;;;6.80;100.00
60852;BME280;48553;50.766;2.900;2023-11-22T07:18:34;102305.19;;;6.81;99.97
60852;BME280;48553;50.766;2.900;2023-11-22T07:21:35;102307.06;;;6.81;100.00
60852;BME280;48553;50.766;2.900;2023-11-22T07:24:38;102307.06;;;6.81;99.97
60852;BME280;48553;50.766;2.900;2023-11-22T07:27:38;102321.78;;;6.80;99.94
60852;BME280;48553;50.766;2.900;2023-11-22T07:30:39;102320.13;;;6.79;100.00
60852;BME280;48553;50.766;2.900;2023-11-22T07:33:41;102318.22;;;6.74;99.97
60852;BME280;48553;50.766;2.900;2023-11-22T07:36:42;102329.13;;;6.74;100.00
60852;BME280;48553;50.766;2.900;2023-11-22T07:39:42;102326.41;;;6.74;100.00
60852;BME280;48553;50.766;2.900;2023-11-22T07:42:44;102324.78;;;6.73;99.91
60852;BME280;48553;50.766;2.900;2023-11-22T07:45:44;102333.22;;;6.72;99.90
60852;BME280;48553;50.766;2.900;2023-11-22T07:48:45;102340.56;;;6.71;99.85
60852;BME280;48553;50.766;2.900;2023-11-22T07:51:47;102343.03;;;6.73;99.76
60852;BME280;48553;50.766;2.900;2023-11-22T07:54:47;102338.94;;;6.70;99.98
60852;BME280;48553;50.766;2.900;2023-11-22T07:57:48;102340.03;;;6.69;99.76
60852;BME280;48553;50.766;2.900;2023-11-22T08:00:50;102339.75;;;6.71;100.00
60852;BME280;48553;50.766;2.900;2023-11-22T08:03:51;102335.69;;;6.73;99.77
60852;BME280;48553;50.766;2.900;2023-11-22T08:06:51;102339.22;;;6.74;100.00
60852;BME280;48553;50.766;2.900;2023-11-22T08:09:56;102359.69;;;6.92;99.12
60852;BME280;48553;50.766;2.900;2023-11-22T08:12:57;102363.22;;;7.43;96.36
60852;BME280;48553;50.766;2.900;2023-11-22T08:15:57;102379.84;;;7.26;96.77
60852;BME280;48553;50.766;2.900;2023-11-22T08:18:58;102386.41;;;7.20;97.40
60852;BME280;48553;50.766;2.900;2023-11-22T08:21:58;102387.22;;;7.41;96.62
60852;BME280;48553;50.766;2.900;2023-11-22T08:24:58;102382.81;;;7.61;95.72
60852;BME280;48553;50.766;2.900;2023-11-22T08:27:59;102379.25;;;7.86;95.16
60852;BME280;48553;50.766;2.900;2023-11-22T08:31:01;102379.72;;;8.03;94.18
60852;BME280;48553;50.766;2.900;2023-11-22T08:34:01;102377.25;;;8.12;94.02
60852;BME280;48553;50.766;2.900;2023-11-22T08:37:04;102385.16;;;8.13;93.80
60852;BME280;48553;50.766;2.900;2023-11-22T08:40:06;102377.72;;;8.24;94.04
60852;BME280;48553;50.766;2.900;2023-11-22T08:43:07;102366.50;;;8.41;93.82
60852;BME280;48553;50.766;2.900;2023-11-22T08:46:07;102371.63;;;8.53;93.22
60852;BME280;48553;50.766;2.900;2023-11-22T08:49:08;102376.06;;;8.44;93.73
60852;BME280;48553;50.766;2.900;2023-11-22T08:52:08;102379.63;;;8.34;94.17
60852;BME280;48553;50.766;2.900;2023-11-22T08:55:09;102381.28;;;8.30;94.87
60852;BME280;48553;50.766;2.900;2023-11-22T08:58:12;102395.28;;;8.13;95.96
60852;BME280;48553;50.766;2.900;2023-11-22T09:01:12;102394.75;;;8.01;96.98
60852;BME280;48553;50.766;2.900;2023-11-22T09:04:14;102388.78;;;7.93;97.70
60852;BME280;48553;50.766;2.900;2023-11-22T09:07:16;102386.63;;;7.90;98.25
60852;BME280;48553;50.766;2.900;2023-11-22T09:10:17;102382.50;;;7.88;98.71
60852;BME280;48553;50.766;2.900;2023-11-22T09:13:18;102385.50;;;7.91;99.07
60852;BME280;48553;50.766;2.900;2023-11-22T09:16:19;102378.41;;;7.95;98.92
60852;BME280;48553;50.766;2.900;2023-11-22T09:19:22;102380.03;;;8.02;99.02
60852;BME280;48553;50.766;2.900;2023-11-22T09:22:23;102377.53;;;8.05;98.91
60852;BME280;48553;50.766;2.900;2023-11-22T09:25:27;102370.97;;;8.11;98.84
60852;BME280;48553;50.766;2.900;2023-11-22T09:28:31;102392.56;;;8.13;98.71
60852;BME280;48553;50.766;2.900;2023-11-22T09:31:31;102386.56;;;8.11;98.78
60852;BME280;48553;50.766;2.900;2023-11-22T09:34:32;102398.00;;;8.08;99.46
60852;BME280;48553;50.766;2.900;2023-11-22T09:37:32;102413.84;;;8.06;99.61
60852;BME280;48553;50.766;2.900;2023-11-22T09:40:33;102417.13;;;8.08;99.97
60852;BME280;48553;50.766;2.900;2023-11-22T09:43:34;102417.13;;;8.08;99.66
60852;BME280;48553;50.766;2.900;2023-11-22T09:46:34;102418.22;;;8.07;100.00
60852;BME280;48553;50.766;2.900;2023-11-22T09:49:35;102414.66;;;8.11;100.00
60852;BME280;48553;50.766;2.900;2023-11-22T09:52:40;102422.59;;;8.13;100.00
60852;BME280;48553;50.766;2.900;2023-11-22T09:55:43;102426.13;;;8.19;99.88
60852;BME280;48553;50.766;2.900;2023-11-22T09:58:47;102427.47;;;8.21;100.00
60852;BME280;48553;50.766;2.900;2023-11-22T10:01:51;102431.00;;;8.27;100.00
60852;BME280;48553;50.766;2.900;2023-11-22T10:04:53;102430.16;;;8.26;100.00
60852;BME280;48553;50.766;2.900;2023-11-22T10:07:54;102436.44;;;8.32;100.00
60852;BME280;48553;50.766;2.900;2023-11-22T10:10:56;102432.88;;;8.42;99.86
60852;BME280;48553;50.766;2.900;2023-11-22T10:13:56;102425.47;;;8.52;99.23
60852;BME280;48553;50.766;2.900;2023-11-22T10:17:00;102410.66;;;8.64;98.87
60852;BME280;48553;50.766;2.900;2023-11-22T10:20:01;102397.19;;;8.77;98.32
60852;BME280;48553;50.766;2.900;2023-11-22T10:23:02;102390.28;;;8.90;97.63
60852;BME280;48553;50.766;2.900;2023-11-22T10:26:03;102372.44;;;8.98;97.54
60852;BME280;48553;50.766;2.900;2023-11-22T10:29:07;102362.78;;;9.11;97.17
60852;BME280;48553;50.766;2.900;2023-11-22T10:32:08;102366.47;;;9.25;96.49
60852;BME280;48553;50.766;2.900;2023-11-22T10:35:09;102359.34;;;9.29;96.32
60852;BME280;48553;50.766;2.900;2023-11-22T10:38:09;102362.84;;;9.35;96.50
60852;BME280;48553;50.766;2.900;2023-11-22T10:41:10;102360.88;;;9.40;96.10
60852;BME280;48553;50.766;2.900;2023-11-22T10:44:11;102358.50;;;9.58;95.69
60852;BME280;48553;50.766;2.900;2023-11-22T10:47:14;102360.78;;;9.51;95.98
60852;BME280;48553;50.766;2.900;2023-11-22T10:50:15;102350.06;;;9.54;95.81
60852;BME280;48553;50.766;2.900;2023-11-22T10:53:16;102348.63;;;9.62;95.89
60852;BME280;48553;50.766;2.900;2023-11-22T10:56:20;102358.22;;;9.59;96.12
60852;BME280;48553;50.766;2.900;2023-11-22T10:59:26;102366.44;;;9.59;96.24
60852;BME280;48553;50.766;2.900;2023-11-22T11:02:28;102356.13;;;9.75;95.66
60852;BME280;48553;50.766;2.900;2023-11-22T11:05:31;102352.44;;;9.90;95.18
60852;BME280;48553;50.766;2.900;2023-11-22T11:08:36;102351.13;;;10.07;95.06
60852;BME280;48553;50.766;2.900;2023-11-22T11:11:38;102352.19;;;10.11;94.83
60852;BME280;48553;50.766;2.900;2023-11-22T11:14:42;102341.16;;;10.16;94.66
60852;BME280;48553;50.766;2.900;2023-11-22T11:17:44;102339.47;;;10.20;94.96
60852;BME280;48553;50.766;2.900;2023-11-22T11:23:52;102320.59;;;10.37;94.70
60852;BME280;48553;50.766;2.900;2023-11-22T11:26:52;102321.38;;;10.43;94.56
60852;BME280;48553;50.766;2.900;2023-11-22T11:29:54;102333.06;;;10.30;94.36
60852;BME280;48553;50.766;2.900;2023-11-22T11:32:55;102330.41;;;10.19;94.49
60852;BME280;48553;50.766;2.900;2023-11-22T11:35:56;102322.34;;;10.28;95.37
60852;BME280;48553;50.766;2.900;2023-11-22T11:38:59;102335.50;;;10.31;95.55
60852;BME280;48553;50.766;2.900;2023-11-22T11:42:11;102330.84;;;10.32;95.95
60852;BME280;48553;50.766;2.900;2023-11-22T11:45:13;102342.00;;;10.35;96.83
60852;BME280;48553;50.766;2.900;2023-11-22T11:48:14;102340.09;;;10.36;95.46
60852;BME280;48553;50.766;2.900;2023-11-22T11:51:16;102352.41;;;10.38;95.31
60852;BME280;48553;50.766;2.900;2023-11-22T11:54:17;102362.78;;;10.41;95.43
60852;BME280;48553;50.766;2.900;2023-11-22T11:57:17;102359.13;;;10.46;95.18
60852;BME280;48553;50.766;2.900;2023-11-22T12:00:18;102382.34;;;10.54;95.31
60852;BME280;48553;50.766;2.900;2023-11-22T12:03:19;102382.28;;;10.59;95.19
60852;BME280;48553;50.766;2.900;2023-11-22T12:06:21;102349.53;;;10.68;95.34
60852;BME280;48553;50.766;2.900;2023-11-22T12:09:23;102331.56;;;10.75;95.36
60852;BME280;48553;50.766;2.900;2023-11-22T12:12:26;102338.63;;;10.81;95.19
60852;BME280;48553;50.766;2.900;2023-11-22T12:15:27;102325.44;;;10.83;95.15
60852;BME280;48553;50.766;2.900;2023-11-22T12:18:28;102333.66;;;10.83;95.57
60852;BME280;48553;50.766;2.900;2023-11-22T12:21:30;102316.06;;;10.84;95.57
60852;BME280;48553;50.766;2.900;2023-11-22T12:24:31;102315.56;;;10.82;95.54
60852;BME280;48553;50.766;2.900;2023-11-22T12:27:31;102315.03;;;10.80;95.79
60852;BME280;48553;50.766;2.900;2023-11-22T12:30:34;102300.09;;;10.73;95.80
60852;BME280;48553;50.766;2.900;2023-11-22T12:33:35;102297.50;;;10.62;95.39
60852;BME280;48553;50.766;2.900;2023-11-22T12:36:35;102286.59;;;10.57;95.23
60852;BME280;48553;50.766;2.900;2023-11-22T12:39:36;102265.81;;;10.56;94.85
60852;BME280;48553;50.766;2.900;2023-11-22T12:42:49;102284.16;;;10.56;95.58
60852;BME280;48553;50.766;2.900;2023-11-22T12:46:01;102282.81;;;10.53;95.13
60852;BME280;48553;50.766;2.900;2023-11-22T12:49:05;102276.34;;;10.49;95.38
60852;BME280;48553;50.766;2.900;2023-11-22T12:52:06;102274.47;;;10.44;95.18
60852;BME280;48553;50.766;2.900;2023-11-22T12:55:07;102276.38;;;10.44;95.57
60852;BME280;48553;50.766;2.900;2023-11-22T12:58:08;102273.13;;;10.42;95.47
60852;BME280;48553;50.766;2.900;2023-11-22T13:01:08;102280.91;;;10.35;96.19
60852;BME280;48553;50.766;2.900;2023-11-22T13:04:09;102284.53;;;10.30;96.25
60852;BME280;48553;50.766;2.900;2023-11-22T13:07:10;102289.47;;;10.28;96.31
60852;BME280;48553;50.766;2.900;2023-11-22T13:10:10;102295.03;;;10.23;96.22
60852;BME280;48553;50.766;2.900;2023-11-22T13:13:11;102287.69;;;10.18;96.44
60852;BME280;48553;50.766;2.900;2023-11-22T13:16:13;102272.13;;;10.14;96.70
60852;BME280;48553;50.766;2.900;2023-11-22T13:19:14;102266.44;;;10.10;96.86
60852;BME280;48553;50.766;2.900;2023-11-22T13:22:14;102259.09;;;10.06;96.78
60852;BME280;48553;50.766;2.900;2023-11-22T13:25:15;102253.94;;;10.04;96.96
60852;BME280;48553;50.766;2.900;2023-11-22T13:28:17;102253.69;;;10.00;96.71
60852;BME280;48553;50.766;2.900;2023-11-22T13:31:18;102254.50;;;10.01;97.07
60852;BME280;48553;50.766;2.900;2023-11-22T13:34:18;102243.03;;;9.99;97.26
60852;BME280;48553;50.766;2.900;2023-11-22T13:37:22;102242.22;;;9.98;97.32
60852;BME280;48553;50.766;2.900;2023-11-22T13:40:23;102229.94;;;9.96;97.17
60852;BME280;48553;50.766;2.900;2023-11-22T13:43:25;102210.50;;;9.92;97.53
60852;BME280;48553;50.766;2.900;2023-11-22T13:46:26;102205.94;;;9.88;97.80
60852;BME280;48553;50.766;2.900;2023-11-22T13:49:26;102181.88;;;9.85;98.09
60852;BME280;48553;50.766;2.900;2023-11-22T13:52:27;102174.28;;;9.81;98.09
60852;BME280;48553;50.766;2.900;2023-11-22T13:55:27;102190.69;;;9.81;98.38
60852;BME280;48553;50.766;2.900;2023-11-22T13:58:28;102199.19;;;9.80;98.15
60852;BME280;48553;50.766;2.900;2023-11-22T14:01:29;102190.75;;;9.76;98.21
60852;BME280;48553;50.766;2.900;2023-11-22T14:04:29;102194.31;;;9.77;98.14
60852;BME280;48553;50.766;2.900;2023-11-22T14:07:30;102200.31;;;9.79;97.78
60852;BME280;48553;50.766;2.900;2023-11-22T14:10:31;102196.47;;;9.80;98.28
60852;BME280;48553;50.766;2.900;2023-11-22T14:13:31;102187.97;;;9.81;98.25
60852;BME280;48553;50.766;2.900;2023-11-22T14:16:35;102193.13;;;9.83;98.06
60852;BME280;48553;50.766;2.900;2023-11-22T14:19:38;102204.91;;;9.83;98.21
60852;BME280;48553;50.766;2.900;2023-11-22T14:22:40;102203.56;;;9.81;98.09
60852;BME280;48553;50.766;2.900;2023-11-22T14:25:41;102184.38;;;9.81;98.30
60852;BME280;48553;50.766;2.900;2023-11-22T14:28:41;102188.75;;;9.82;98.05
60852;BME280;48553;50.766;2.900;2023-11-22T14:31:43;102188.75;;;9.82;97.96
60852;BME280;48553;50.766;2.900;2023-11-22T14:34:45;102196.47;;;9.80;98.29
60852;BME280;48553;50.766;2.900;2023-11-22T14:37:45;102190.75;;;9.76;98.32
60852;BME280;48553;50.766;2.900;2023-11-22T14:40:46;102187.50;;;9.74;98.42
60852;BME280;48553;50.766;2.900;2023-11-22T14:43:46;102174.41;;;9.71;98.29
60852;BME280;48553;50.766;2.900;2023-11-22T14:46:47;102160.19;;;9.69;98.59
60852;BME280;48553;50.766;2.900;2023-11-22T14:49:50;102171.22;;;9.64;98.91
60852;BME280;48553;50.766;2.900;2023-11-22T14:52:50;102197.84;;;9.58;98.92
60852;BME280;48553;50.766;2.900;2023-11-22T14:55:51;102189.41;;;9.55;98.99
60852;BME280;48553;50.766;2.900;2023-11-22T14:58:51;102180.44;;;9.49;98.85
60852;BME280;48553;50.766;2.900;2023-11-22T15:01:54;102188.13;;;9.47;98.27
60852;BME280;48553;50.766;2.900;2023-11-22T15:04:55;102203.50;;;9.43;98.57
60852;BME280;48553;50.766;2.900;2023-11-22T15:07:56;102199.19;;;9.37;98.57
60852;BME280;48553;50.766;2.900;2023-11-22T15:10:57;102217.53;;;9.36;98.60
60852;BME280;48553;50.766;2.900;2023-11-22T15:13:57;102225.50;;;9.33;98.53
60852;BME280;48553;50.766;2.900;2023-11-22T15:16:58;102224.16;;;9.30;98.76
60852;BME280;48553;50.766;2.900;2023-11-22T15:20:01;102218.47;;;9.27;98.34
60852;BME280;48553;50.766;2.900;2023-11-22T15:23:02;102211.06;;;9.27;98.44
60852;BME280;48553;50.766;2.900;2023-11-22T15:26:03;102201.00;;;9.23;98.38
60852;BME280;48553;50.766;2.900;2023-11-22T15:29:04;102195.00;;;9.20;98.71
60852;BME280;48553;50.766;2.900;2023-11-22T15:32:06;102187.88;;;9.19;98.85
60852;BME280;48553;50.766;2.900;2023-11-22T15:35:07;102191.75;;;9.18;98.83
60852;BME280;48553;50.766;2.900;2023-11-22T15:38:08;102206.00;;;9.15;98.81
60852;BME280;48553;50.766;2.900;2023-11-22T15:41:09;102205.75;;;9.12;99.13
60852;BME280;48553;50.766;2.900;2023-11-22T15:44:10;102185.81;;;9.11;99.04
60852;BME280;48553;50.766;2.900;2023-11-22T15:47:10;102179.00;;;9.09;99.15
60852;BME280;48553;50.766;2.900;2023-11-22T15:50:11;102176.56;;;9.07;99.18
60852;BME280;48553;50.766;2.900;2023-11-22T15:53:11;102183.13;;;9.06;99.20
60852;BME280;48553;50.766;2.900;2023-11-22T15:56:15;102192.22;;;9.02;99.28